createdAt,value
2023-04-19T00:00:09.388Z,5.47
2023-04-19T00:02:40.379Z,5.08
2023-04-19T00:05:10.009Z,4.47
2023-04-19T00:07:38.599Z,5.00
2023-04-19T00:10:07.552Z,4.27
2023-04-19T00:12:36.047Z,4.83
2023-04-19T00:15:05.249Z,4.28
2023-04-19T00:17:34.170Z,4.73
2023-04-19T00:20:03.511Z,4.87
2023-04-19T00:22:32.041Z,5.17
2023-04-19T00:25:00.559Z,4.43
2023-04-19T00:27:29.094Z,4.80
2023-04-19T00:29:57.784Z,4.70
2023-04-19T00:32:26.895Z,4.67
2023-04-19T00:34:55.759Z,5.17
2023-04-19T00:37:24.011Z,5.33
2023-04-19T00:39:52.818Z,5.97
2023-04-19T00:42:21.646Z,5.58
2023-04-19T00:44:50.544Z,5.25
2023-04-19T00:47:19.270Z,4.67
2023-04-19T00:49:47.879Z,4.80
2023-04-19T00:52:17.315Z,4.67
2023-04-19T00:54:46.136Z,5.17
2023-04-19T00:57:15.454Z,5.60
2023-04-19T00:59:43.957Z,4.90
2023-04-19T01:02:13.571Z,4.80
2023-04-19T01:04:42.241Z,5.17
2023-04-19T01:07:11.634Z,5.07
2023-04-19T01:09:42.294Z,4.55
2023-04-19T01:12:10.802Z,4.50
2023-04-19T01:14:39.347Z,3.57
2023-04-19T01:17:08.428Z,3.83
2023-04-19T01:19:38.582Z,3.77
2023-04-19T01:22:06.880Z,4.43
2023-04-19T01:24:35.489Z,3.77
2023-04-19T01:27:04.804Z,4.60
2023-04-19T01:29:33.366Z,4.13
2023-04-19T01:32:01.918Z,4.33
2023-04-19T01:34:30.736Z,4.70
2023-04-19T01:36:59.542Z,4.10
2023-04-19T01:39:28.142Z,4.20
2023-04-19T01:41:56.670Z,4.00
2023-04-19T01:44:25.257Z,4.67
2023-04-19T01:46:55.260Z,5.33
2023-04-19T01:49:23.544Z,4.90
2023-04-19T01:51:52.076Z,4.67
2023-04-19T01:54:21.554Z,4.90
2023-04-19T01:56:51.163Z,4.93
2023-04-19T01:59:20.828Z,4.00
2023-04-19T02:01:49.440Z,3.80
2023-04-19T02:04:21.160Z,3.27
2023-04-19T02:06:49.866Z,3.58
2023-04-19T02:09:18.083Z,2.97
2023-04-19T02:11:47.187Z,3.40
2023-04-19T02:14:15.522Z,3.07
2023-04-19T02:16:44.255Z,3.00
2023-04-19T02:19:13.486Z,3.07
2023-04-19T02:21:41.976Z,2.73
2023-04-19T02:24:10.690Z,2.90
2023-04-19T02:26:39.870Z,3.17
2023-04-19T02:29:08.073Z,2.60
2023-04-19T02:31:37.150Z,2.83
2023-04-19T02:34:05.620Z,3.07
2023-04-19T02:36:34.293Z,2.57
2023-04-19T02:39:05.474Z,2.97
2023-04-19T02:41:33.977Z,2.53
2023-04-19T02:44:03.227Z,2.92
2023-04-19T02:46:31.817Z,2.87
2023-04-19T02:49:01.861Z,2.90
2023-04-19T02:51:30.986Z,2.23
2023-04-19T02:53:59.610Z,2.70
2023-04-19T02:56:28.182Z,2.37
2023-04-19T02:58:56.983Z,2.17
2023-04-19T03:01:25.550Z,1.87
2023-04-19T03:03:54.965Z,2.50
2023-04-19T03:06:23.513Z,1.93
2023-04-19T03:08:52.015Z,1.93
2023-04-19T03:11:20.984Z,2.10
2023-04-19T03:13:49.504Z,2.00
2023-04-19T03:16:18.131Z,1.83
2023-04-19T03:18:48.750Z,1.97
2023-04-19T03:21:17.220Z,2.00
2023-04-19T03:23:53.967Z,2.05
2023-04-19T03:26:22.923Z,1.40
2023-04-19T03:28:53.186Z,1.87
2023-04-19T03:31:40.621Z,1.80
2023-04-19T03:34:10.458Z,1.97
2023-04-19T03:36:41.253Z,1.90
2023-04-19T03:39:09.540Z,1.33
2023-04-19T03:41:40.796Z,1.97
2023-04-19T03:44:11.006Z,1.13
2023-04-19T03:46:40.395Z,1.30
2023-04-19T03:49:09.480Z,1.60
2023-04-19T03:51:41.819Z,1.10
2023-04-19T03:56:38.402Z,1.65
2023-04-19T03:59:07.053Z,0.90
2023-04-19T04:01:38.782Z,1.53
2023-04-19T04:06:34.727Z,1.60
2023-04-19T04:09:04.004Z,1.75
2023-04-19T04:11:32.675Z,1.40
2023-04-19T04:14:01.541Z,1.37
2023-04-19T04:16:31.892Z,1.33
2023-04-19T04:19:01.239Z,1.20
2023-04-19T04:21:30.895Z,0.80
2023-04-19T04:24:02.080Z,1.10
2023-04-19T04:26:48.876Z,1.53
2023-04-19T04:29:21.812Z,1.60
2023-04-19T04:31:52.715Z,1.42
2023-04-19T04:34:22.751Z,2.15
2023-04-19T04:36:53.295Z,1.60
2023-04-19T04:39:22.346Z,1.43
2023-04-19T04:41:51.989Z,1.30
2023-04-19T04:44:20.727Z,1.23
2023-04-19T04:46:49.506Z,2.08
2023-04-19T04:49:19.431Z,1.93
2023-04-19T04:51:48.027Z,1.20
2023-04-19T04:54:17.068Z,1.90
2023-04-19T04:56:46.277Z,1.32
2023-04-19T04:59:14.563Z,1.70
2023-04-19T05:01:44.702Z,1.53
2023-04-19T05:04:13.932Z,1.60
2023-04-19T05:06:44.460Z,2.00
2023-04-19T05:09:13.291Z,1.60
2023-04-19T05:11:41.902Z,1.50
2023-04-19T05:14:10.545Z,1.27
2023-04-19T05:16:39.166Z,1.80
2023-04-19T05:19:08.450Z,1.80
2023-04-19T05:21:38.754Z,2.27
2023-04-19T05:24:07.201Z,2.13
2023-04-19T05:26:35.990Z,1.50
2023-04-19T05:29:04.953Z,1.35
2023-04-19T05:31:35.269Z,1.63
2023-04-19T05:34:05.453Z,1.97
2023-04-19T05:36:34.041Z,1.43
2023-04-19T05:39:02.618Z,1.57
2023-04-19T05:41:31.878Z,2.27
2023-04-19T05:44:01.149Z,1.92
2023-04-19T05:46:29.927Z,1.93
2023-04-19T05:48:58.646Z,1.57
2023-04-19T05:51:28.961Z,1.70
2023-04-19T05:54:00.497Z,1.90
2023-04-19T05:56:29.802Z,1.53
2023-04-19T05:59:00.000Z,1.90
2023-04-19T06:01:28.877Z,1.62
2023-04-19T06:03:57.796Z,2.00
2023-04-19T06:06:28.347Z,1.87
2023-04-19T06:08:56.832Z,1.47
2023-04-19T06:11:31.747Z,2.23
2023-04-19T06:13:56.016Z,1.52
2023-04-19T06:16:24.970Z,1.73
2023-04-19T06:18:53.608Z,2.07
2023-04-19T06:21:21.899Z,1.80
2023-04-19T06:23:50.686Z,1.98
2023-04-19T06:26:20.485Z,1.72
2023-04-19T06:28:49.295Z,2.55
2023-04-19T06:31:17.517Z,2.27
2023-04-19T06:33:46.339Z,1.65
2023-04-19T06:36:14.866Z,2.03
2023-04-19T06:38:44.586Z,1.70
2023-04-19T06:41:13.486Z,1.53
2023-04-19T06:43:42.793Z,1.70
2023-04-19T06:46:13.020Z,1.90
2023-04-19T06:48:41.799Z,1.80
2023-04-19T06:51:10.498Z,1.95
2023-04-19T06:53:39.282Z,2.08
2023-04-19T06:56:07.825Z,1.50
2023-04-19T06:58:36.514Z,1.47
2023-04-19T07:01:05.253Z,1.63
2023-04-19T07:03:34.246Z,1.60
2023-04-19T07:06:03.029Z,1.70
2023-04-19T07:08:46.295Z,1.97
2023-04-19T07:11:02.866Z,1.60
2023-04-19T07:13:31.588Z,1.80
2023-04-19T07:16:00.205Z,1.87
2023-04-19T07:18:28.780Z,1.50
2023-04-19T07:20:57.363Z,1.93
2023-04-19T07:23:25.956Z,1.50
2023-04-19T07:25:54.637Z,1.73
2023-04-19T07:28:28.482Z,1.02
2023-04-19T07:31:00.800Z,2.00
2023-04-19T07:33:29.537Z,2.03
2023-04-19T07:35:58.168Z,2.00
2023-04-19T07:38:26.637Z,1.50
2023-04-19T07:40:55.164Z,1.83
2023-04-19T07:43:23.379Z,2.07
2023-04-19T07:45:51.878Z,1.93
2023-04-19T07:48:20.406Z,1.70
2023-04-19T07:50:49.398Z,1.80
2023-04-19T07:53:18.280Z,2.83
2023-04-19T07:55:46.834Z,2.37
2023-04-19T07:58:15.037Z,2.00
2023-04-19T08:00:43.714Z,2.37
2023-04-19T08:03:12.388Z,1.93
2023-04-19T08:05:41.155Z,2.03
2023-04-19T08:08:09.517Z,1.85
2023-04-19T08:10:38.046Z,2.30
2023-04-19T08:13:07.039Z,2.40
2023-04-19T08:18:06.594Z,1.97
2023-04-19T08:20:37.053Z,2.20
2023-04-19T08:23:14.486Z,1.93
2023-04-19T08:25:37.023Z,2.10
2023-04-19T08:28:06.521Z,1.83
2023-04-19T08:30:35.108Z,1.97
2023-04-19T08:33:04.740Z,2.35
2023-04-19T08:35:34.784Z,1.90
2023-04-19T08:38:04.758Z,2.27
2023-04-19T08:40:33.412Z,2.60
2023-04-19T08:43:03.744Z,1.87
2023-04-19T08:45:32.496Z,2.07
2023-04-19T08:48:02.824Z,1.90
2023-04-19T08:50:38.784Z,1.80
2023-04-19T08:53:20.842Z,2.83
2023-04-19T08:55:34.922Z,2.33
2023-04-19T08:58:09.683Z,2.37
2023-04-19T09:03:02.870Z,2.27
2023-04-19T09:05:31.965Z,3.27
2023-04-19T09:08:19.019Z,2.50
2023-04-19T09:10:50.074Z,2.13
2023-04-19T09:13:19.172Z,2.53
2023-04-19T09:15:47.848Z,2.27
2023-04-19T09:18:16.335Z,2.60
2023-04-19T09:20:45.896Z,2.75
2023-04-19T09:23:15.764Z,3.17
2023-04-19T09:26:19.381Z,2.50
2023-04-19T09:28:24.942Z,2.80
2023-04-19T09:33:28.191Z,2.50
2023-04-19T09:35:57.202Z,2.35
2023-04-19T09:38:26.684Z,2.60
2023-04-19T09:41:08.153Z,2.13
2023-04-19T09:44:00.749Z,2.00
2023-04-19T09:46:06.493Z,2.10
2023-04-19T09:48:37.032Z,2.50
2023-04-19T09:51:09.806Z,3.30
2023-04-19T09:53:36.613Z,2.50
2023-04-19T09:56:06.430Z,2.72
2023-04-19T09:58:46.797Z,3.27
2023-04-19T10:01:15.020Z,3.10
2023-04-19T10:03:37.612Z,3.22
2023-04-19T10:06:14.249Z,3.43
2023-04-19T10:08:38.487Z,3.73
2023-04-19T10:11:07.558Z,3.10
2023-04-19T10:13:37.834Z,2.98
2023-04-19T10:16:18.116Z,3.20
2023-04-19T10:18:36.716Z,2.72
2023-04-19T10:21:11.175Z,2.73
2023-04-19T10:23:39.677Z,2.83
2023-04-19T10:26:09.086Z,3.17
2023-04-19T10:28:37.865Z,2.70
2023-04-19T10:31:09.903Z,2.40
2023-04-19T10:33:38.581Z,3.03
2023-04-19T10:36:08.667Z,2.40
2023-04-19T10:38:48.220Z,2.58
2023-04-19T10:41:19.086Z,3.50
2023-04-19T10:43:48.664Z,3.12
2023-04-19T10:46:18.655Z,3.07
2023-04-19T10:48:52.968Z,3.47
2023-04-19T10:51:41.751Z,3.87
2023-04-19T10:54:11.102Z,3.40
2023-04-19T10:56:41.211Z,2.33
2023-04-19T10:59:17.487Z,3.23
2023-04-19T11:01:48.470Z,2.92
2023-04-19T11:04:33.550Z,2.63
2023-04-19T11:07:03.531Z,2.45
2023-04-19T11:09:34.393Z,3.10
2023-04-19T11:12:08.474Z,2.85
2023-04-19T11:14:39.576Z,3.20
2023-04-19T11:17:18.226Z,2.58
2023-04-19T11:19:48.277Z,2.70
2023-04-19T11:22:16.579Z,2.80
2023-04-19T11:24:48.124Z,3.63
2023-04-19T11:29:44.717Z,2.85
2023-04-19T11:32:13.210Z,3.03
2023-04-19T11:34:41.725Z,3.43
2023-04-19T11:37:11.565Z,2.70
2023-04-19T11:39:47.618Z,2.87
2023-04-19T11:42:19.909Z,2.70
2023-04-19T11:44:51.980Z,3.37
2023-04-19T11:47:20.935Z,3.50
2023-04-19T11:49:50.836Z,3.52
2023-04-19T11:52:23.417Z,3.53
2023-04-19T11:54:52.932Z,3.77
2023-04-19T11:57:28.451Z,3.83
2023-04-19T12:00:09.768Z,3.80
2023-04-19T12:02:43.390Z,4.23
2023-04-19T12:05:14.527Z,3.50
2023-04-19T12:10:11.791Z,3.35
2023-04-19T12:12:40.866Z,4.37
2023-04-19T12:15:09.307Z,3.70
2023-04-19T12:17:44.792Z,3.60
2023-04-19T12:22:36.932Z,2.95
2023-04-19T12:25:05.760Z,3.27
2023-04-19T12:27:34.637Z,2.22
2023-04-19T12:30:04.257Z,2.40
2023-04-19T12:32:33.028Z,2.27
2023-04-19T12:35:01.593Z,2.50
2023-04-19T12:37:30.390Z,2.05
2023-04-19T12:39:59.206Z,2.65
2023-04-19T12:42:27.714Z,1.90
2023-04-19T12:44:56.219Z,2.10
2023-04-19T12:47:24.757Z,2.33
2023-04-19T12:49:55.178Z,2.98
2023-04-19T12:52:23.602Z,2.27
2023-04-19T12:54:52.125Z,2.03
2023-04-19T12:57:20.605Z,2.23
2023-04-19T12:59:49.426Z,2.85
2023-04-19T13:02:17.767Z,2.50
2023-04-19T13:04:46.495Z,2.43
2023-04-19T13:07:14.904Z,2.07
2023-04-19T13:09:43.383Z,2.40
2023-04-19T13:12:12.167Z,2.80
2023-04-19T13:14:40.664Z,2.10
2023-04-19T13:17:09.041Z,2.37
2023-04-19T13:19:37.544Z,2.50
2023-04-19T13:22:05.828Z,2.53
2023-04-19T13:24:34.357Z,2.40
2023-04-19T13:27:02.929Z,2.00
2023-04-19T13:29:31.458Z,2.20
2023-04-19T13:31:59.967Z,1.70
2023-04-19T13:34:28.527Z,2.10
2023-04-19T13:36:58.219Z,2.33
2023-04-19T13:39:26.718Z,2.27
2023-04-19T13:41:55.270Z,2.33
2023-04-19T13:44:25.134Z,3.33
2023-04-19T13:46:54.051Z,4.50
2023-04-19T13:49:22.298Z,2.90
2023-04-19T13:51:51.157Z,2.50
2023-04-19T13:54:20.209Z,1.73
2023-04-19T13:56:51.964Z,1.47
2023-04-19T13:59:19.101Z,1.80
2023-04-19T14:01:47.640Z,2.23
2023-04-19T14:04:16.455Z,2.10
2023-04-19T14:06:45.476Z,2.10
2023-04-19T14:09:14.063Z,1.87
2023-04-19T14:11:42.822Z,2.08
2023-04-19T14:14:11.312Z,1.83
2023-04-19T14:16:40.767Z,1.90
2023-04-19T14:19:09.129Z,1.80
2023-04-19T14:21:37.641Z,2.00
2023-04-19T14:24:06.118Z,1.90
2023-04-19T14:26:34.636Z,1.57
2023-04-19T14:29:03.127Z,1.93
2023-04-19T14:31:31.645Z,1.50
2023-04-19T14:34:00.119Z,1.90
2023-04-19T14:36:28.920Z,1.82
2023-04-19T14:38:57.689Z,2.08
2023-04-19T14:41:25.905Z,1.82
2023-04-19T14:43:56.526Z,1.80
2023-04-19T14:46:24.789Z,2.10
2023-04-19T14:48:53.312Z,2.10
2023-04-19T14:51:21.660Z,2.23
2023-04-19T14:53:51.084Z,2.07
2023-04-19T14:56:19.979Z,2.00
2023-04-19T14:58:48.756Z,1.98
2023-04-19T15:01:17.712Z,1.87
2023-04-19T15:03:46.928Z,2.27
2023-04-19T15:06:16.073Z,1.80
2023-04-19T15:08:44.564Z,1.47
2023-04-19T15:11:12.865Z,1.63
2023-04-19T15:13:41.455Z,1.27
2023-04-19T15:16:09.715Z,1.67
2023-04-19T15:18:38.332Z,1.83
2023-04-19T15:21:06.979Z,1.83
2023-04-19T15:23:35.498Z,1.83
2023-04-19T15:26:04.072Z,1.77
2023-04-19T15:28:35.500Z,1.70
2023-04-19T15:31:04.502Z,2.52
2023-04-19T15:33:33.069Z,1.57
2023-04-19T15:36:02.684Z,2.03
2023-04-19T15:38:32.625Z,2.03
2023-04-19T15:41:01.634Z,3.13
2023-04-19T15:43:30.189Z,2.17
2023-04-19T15:45:58.704Z,1.77
2023-04-19T15:48:28.866Z,1.95
2023-04-19T15:50:57.389Z,2.20
2023-04-19T15:53:27.839Z,1.87
2023-04-19T15:55:56.538Z,1.40
2023-04-19T15:58:25.339Z,1.77
2023-04-19T16:00:54.229Z,2.08
2023-04-19T16:03:22.848Z,2.27
2023-04-19T16:05:51.846Z,1.75
2023-04-19T16:08:20.189Z,1.97
2023-04-19T16:10:49.870Z,1.50
2023-04-19T16:13:19.474Z,1.67
2023-04-19T16:15:48.003Z,1.40
2023-04-19T16:18:16.820Z,1.85
2023-04-19T16:20:45.727Z,1.80
2023-04-19T16:23:15.471Z,2.30
2023-04-19T16:25:44.008Z,1.90
2023-04-19T16:28:12.618Z,2.07
2023-04-19T16:30:41.399Z,2.60
2023-04-19T16:33:09.778Z,2.40
2023-04-19T16:35:39.612Z,1.83
2023-04-19T16:38:08.240Z,2.07
2023-04-19T16:40:37.773Z,2.13
2023-04-19T16:43:06.342Z,1.93
2023-04-19T16:45:35.260Z,2.05
2023-04-19T16:48:07.773Z,1.67
2023-04-19T16:50:37.632Z,2.13
2023-04-19T16:53:08.581Z,3.77
2023-04-19T16:58:04.278Z,2.90
2023-04-19T17:00:32.840Z,2.23
2023-04-19T17:03:01.526Z,2.13
2023-04-19T17:05:31.134Z,3.20
2023-04-19T17:07:59.976Z,3.47
2023-04-19T17:10:28.741Z,2.30
2023-04-19T17:12:58.253Z,2.77
2023-04-19T17:15:27.208Z,1.85
2023-04-19T17:17:57.196Z,2.05
2023-04-19T17:20:26.006Z,1.80
2023-04-19T17:22:54.599Z,1.90
2023-04-19T17:25:23.140Z,1.60
2023-04-19T17:27:51.698Z,1.90
2023-04-19T17:30:20.656Z,2.17
2023-04-19T17:32:50.190Z,1.73
2023-04-19T17:35:18.449Z,2.20
2023-04-19T17:37:46.947Z,1.70
2023-04-19T17:40:15.231Z,2.07
2023-04-19T17:42:43.798Z,2.50
2023-04-19T17:45:13.360Z,1.93
2023-04-19T17:47:42.714Z,2.10
2023-04-19T17:50:12.363Z,1.73
2023-04-19T17:52:41.150Z,2.30
2023-04-19T17:55:09.749Z,2.23
2023-04-19T17:57:38.343Z,2.53
2023-04-19T18:00:07.721Z,2.33
2023-04-19T18:02:38.386Z,3.17
2023-04-19T18:05:07.791Z,2.10
2023-04-19T18:07:39.428Z,2.10
2023-04-19T18:10:07.765Z,2.07
2023-04-19T18:12:36.539Z,2.02
2023-04-19T18:15:06.472Z,2.30
2023-04-19T18:17:35.924Z,2.05
2023-04-19T18:20:08.174Z,1.90
2023-04-19T18:22:36.702Z,1.80
2023-04-19T18:25:05.681Z,2.60
2023-04-19T18:27:35.093Z,2.20
2023-04-19T18:30:03.754Z,2.13
2023-04-19T18:32:32.823Z,2.37
2023-04-19T18:35:03.206Z,2.60
2023-04-19T18:37:34.376Z,2.30
2023-04-19T18:40:05.084Z,2.40
2023-04-19T18:42:34.268Z,2.00
2023-04-19T18:45:04.184Z,2.37
2023-04-19T18:47:33.133Z,2.00
2023-04-19T18:50:05.023Z,1.53
2023-04-19T18:55:00.615Z,2.60
2023-04-19T18:57:34.272Z,2.30
2023-04-19T18:59:59.992Z,2.10
2023-04-19T19:02:28.596Z,2.20
2023-04-19T19:05:01.676Z,2.60
2023-04-19T19:07:36.328Z,3.23
2023-04-19T19:10:01.320Z,2.85
2023-04-19T19:12:29.439Z,1.90
2023-04-19T19:15:00.186Z,2.75
2023-04-19T19:17:28.743Z,2.17
2023-04-19T19:19:57.324Z,2.67
2023-04-19T19:22:28.879Z,2.13
2023-04-19T19:24:56.279Z,1.37
2023-04-19T19:27:24.915Z,2.10
2023-04-19T19:29:53.561Z,1.83
2023-04-19T19:32:22.171Z,1.87
2023-04-19T19:34:56.378Z,1.90
2023-04-19T19:37:20.911Z,1.70
2023-04-19T19:39:49.714Z,1.70
2023-04-19T19:42:18.797Z,1.77
2023-04-19T19:44:48.634Z,2.95
2023-04-19T19:47:17.304Z,2.37
2023-04-19T19:50:23.708Z,2.00
2023-04-19T19:52:18.175Z,1.63
2023-04-19T19:54:46.988Z,1.85
2023-04-19T19:59:51.363Z,1.80
2023-04-19T20:02:16.702Z,2.30
2023-04-19T20:04:45.599Z,1.60
2023-04-19T20:09:44.339Z,2.10
2023-04-19T20:12:13.562Z,2.27
2023-04-19T20:14:42.689Z,2.75
2023-04-19T20:17:11.481Z,2.65
2023-04-19T20:19:41.942Z,3.62
2023-04-19T20:22:10.466Z,3.47
2023-04-19T20:24:40.389Z,3.07
2023-04-19T20:27:08.886Z,1.70
2023-04-19T20:29:37.449Z,1.40
2023-04-19T20:32:07.622Z,1.70
2023-04-19T20:34:36.292Z,2.03
2023-04-19T20:37:06.831Z,1.75
2023-04-19T20:39:36.379Z,2.67
2023-04-19T20:42:06.625Z,2.30
2023-04-19T20:44:34.945Z,2.83
2023-04-19T20:47:03.631Z,4.07
2023-04-19T20:49:32.206Z,6.20
2023-04-19T20:52:00.818Z,5.77
2023-04-19T20:54:30.152Z,6.43
2023-04-19T20:57:04.529Z,6.28
2023-04-19T20:59:34.996Z,6.43
2023-04-19T21:02:04.584Z,6.97
2023-04-19T21:04:34.233Z,5.80
2023-04-19T21:07:03.107Z,5.42
2023-04-19T21:09:31.589Z,4.57
2023-04-19T21:12:02.088Z,5.55
2023-04-19T21:14:31.907Z,4.70
2023-04-19T21:17:00.810Z,4.23
2023-04-19T21:19:29.782Z,4.70
2023-04-19T21:21:59.082Z,2.92
2023-04-19T21:24:27.625Z,2.83
2023-04-19T21:26:59.070Z,3.07
2023-04-19T21:31:54.865Z,3.30
2023-04-19T21:34:23.368Z,3.77
2023-04-19T21:36:51.889Z,3.80
2023-04-19T21:39:20.381Z,3.97
2023-04-19T21:41:49.199Z,3.65
2023-04-19T21:44:18.454Z,3.57
2023-04-19T21:46:47.152Z,3.53
2023-04-19T21:49:16.714Z,4.10
2023-04-19T21:51:45.741Z,3.75
2023-04-19T21:54:23.114Z,3.23
2023-04-19T21:56:44.054Z,4.13
2023-04-19T21:59:12.344Z,3.90
2023-04-19T22:01:41.770Z,4.30
2023-04-19T22:04:11.869Z,5.07
2023-04-19T22:06:41.537Z,4.60
2023-04-19T22:09:11.852Z,4.63
2023-04-19T22:11:40.439Z,4.47
2023-04-19T22:14:08.954Z,3.17
2023-04-19T22:16:37.696Z,4.27
2023-04-19T22:19:06.272Z,3.30
2023-04-19T22:21:34.774Z,3.70
2023-04-19T22:24:03.685Z,4.35
2023-04-19T22:26:34.333Z,3.93
2023-04-19T22:29:02.702Z,3.20
2023-04-19T22:31:31.500Z,3.33
2023-04-19T22:34:00.004Z,3.13
2023-04-19T22:36:28.583Z,4.70
2023-04-19T22:38:57.260Z,3.77
2023-04-19T22:41:26.019Z,4.17
2023-04-19T22:43:55.797Z,3.67
2023-04-19T22:46:24.321Z,3.80
2023-04-19T22:48:52.829Z,4.53
2023-04-19T22:51:22.317Z,3.55
2023-04-19T22:53:50.894Z,3.47
2023-04-19T22:56:19.963Z,3.55
2023-04-19T22:58:48.771Z,3.83
2023-04-19T23:01:17.032Z,3.33
2023-04-19T23:03:45.820Z,3.08
2023-04-19T23:06:14.604Z,4.00
2023-04-19T23:08:43.487Z,4.53
2023-04-19T23:11:11.727Z,4.13
2023-04-19T23:13:41.209Z,4.07
2023-04-19T23:16:10.863Z,4.20
2023-04-19T23:18:40.260Z,4.25
2023-04-19T23:21:08.931Z,4.70
2023-04-19T23:23:37.631Z,4.17
2023-04-19T23:26:05.851Z,4.23
2023-04-19T23:28:34.366Z,3.73
2023-04-19T23:31:03.193Z,4.80
2023-04-19T23:33:31.805Z,4.77
2023-04-19T23:36:00.308Z,4.93
2023-04-19T23:38:28.810Z,4.87
2023-04-19T23:40:57.600Z,5.67
2023-04-19T23:43:26.166Z,5.80
2023-04-19T23:45:55.631Z,5.07
2023-04-19T23:48:24.251Z,4.03
2023-04-19T23:50:52.742Z,4.53
2023-04-19T23:53:21.519Z,4.45
2023-04-19T23:55:50.313Z,4.67
2023-04-19T23:58:18.614Z,5.20
